createdAt,value
2022-08-11T00:02:36.086Z,20.64
2022-08-11T00:05:08.912Z,20.57
2022-08-11T00:07:43.725Z,20.51
2022-08-11T00:10:13.785Z,20.46
2022-08-11T00:12:42.742Z,20.37
2022-08-11T00:15:10.231Z,20.31
2022-08-11T00:17:37.685Z,20.26
2022-08-11T00:20:12.616Z,20.23
2022-08-11T00:22:44.969Z,20.17
2022-08-11T00:25:16.968Z,20.14
2022-08-11T00:27:43.881Z,20.08
2022-08-11T00:30:12.075Z,20.04
2022-08-11T00:32:42.267Z,20.01
2022-08-11T00:35:56.094Z,19.99
2022-08-11T00:38:03.366Z,19.92
2022-08-11T00:41:11.254Z,19.88
2022-08-11T00:43:46.891Z,19.83
2022-08-11T00:46:16.366Z,19.79
2022-08-11T00:49:00.369Z,19.76
2022-08-11T00:52:05.376Z,19.72
2022-08-11T00:54:44.989Z,19.65
2022-08-11T00:57:37.505Z,19.63
2022-08-11T01:00:20.629Z,19.61
2022-08-11T01:03:08.700Z,19.58
2022-08-11T01:06:01.943Z,19.53
2022-08-11T01:09:06.970Z,19.48
2022-08-11T01:11:55.501Z,19.45
2022-08-11T01:14:44.294Z,19.44
2022-08-11T01:17:58.900Z,19.37
2022-08-11T01:20:53.313Z,19.33
2022-08-11T01:23:50.972Z,19.26
2022-08-11T01:29:30.262Z,19.12
2022-08-11T01:32:46.639Z,19.04
2022-08-11T01:35:27.506Z,18.99
2022-08-11T01:38:31.588Z,18.94
2022-08-11T01:41:54.196Z,18.88
2022-08-11T01:44:38.733Z,18.79
2022-08-11T01:47:52.953Z,18.76
2022-08-11T01:50:32.091Z,18.72
2022-08-11T01:53:04.794Z,18.72
2022-08-11T01:55:44.868Z,18.70
2022-08-11T01:58:43.480Z,18.69
2022-08-11T02:01:20.449Z,18.68
2022-08-11T02:04:31.312Z,18.66
2022-08-11T02:07:17.005Z,18.65
2022-08-11T02:10:35.343Z,18.60
2022-08-11T02:13:36.900Z,18.51
2022-08-11T02:16:21.673Z,18.46
2022-08-11T02:19:19.093Z,18.40
2022-08-11T02:22:17.532Z,18.36
2022-08-11T02:25:05.954Z,18.31
2022-08-11T02:27:43.379Z,18.28
2022-08-11T02:30:14.561Z,18.25
2022-08-11T02:33:09.523Z,18.20
2022-08-11T02:35:50.275Z,18.15
2022-08-11T02:38:41.990Z,18.10
2022-08-11T02:42:04.796Z,18.05
2022-08-11T02:44:49.101Z,17.97
2022-08-11T02:48:03.799Z,17.95
2022-08-11T02:50:35.453Z,17.89
2022-08-11T02:53:30.362Z,17.86
2022-08-11T02:56:09.050Z,17.80
2022-08-11T02:58:44.155Z,17.77
2022-08-11T03:01:28.338Z,17.74
2022-08-11T03:04:08.696Z,17.70
2022-08-11T03:06:48.208Z,17.65
2022-08-11T03:09:24.546Z,17.61
2022-08-11T03:12:15.346Z,17.58
2022-08-11T03:15:28.288Z,17.55
2022-08-11T03:18:26.202Z,17.50
2022-08-11T03:21:24.419Z,17.46
2022-08-11T03:24:25.645Z,17.42
2022-08-11T03:27:01.258Z,17.38
2022-08-11T03:29:38.418Z,17.34
2022-08-11T03:32:21.669Z,17.32
2022-08-11T03:34:50.587Z,17.29
2022-08-11T03:37:38.629Z,17.26
2022-08-11T03:40:59.173Z,17.22
2022-08-11T03:44:07.750Z,17.17
2022-08-11T03:46:58.969Z,17.14
2022-08-11T03:50:02.149Z,17.12
2022-08-11T03:52:53.734Z,17.11
2022-08-11T03:55:21.918Z,17.09
2022-08-11T03:58:00.541Z,17.09
2022-08-11T04:00:48.530Z,17.08
2022-08-11T04:03:33.495Z,17.03
2022-08-11T04:06:36.190Z,17.01
2022-08-11T04:09:35.987Z,16.95
2022-08-11T04:12:35.832Z,16.93
2022-08-11T04:15:56.251Z,16.89
2022-08-11T04:18:50.729Z,16.85
2022-08-11T04:21:35.562Z,16.83
2022-08-11T04:24:37.953Z,16.80
2022-08-11T04:27:39.050Z,16.78
2022-08-11T04:30:33.929Z,16.76
2022-08-11T04:33:39.543Z,16.76
2022-08-11T04:36:09.507Z,16.79
2022-08-11T04:38:55.189Z,16.82
2022-08-11T04:42:12.688Z,16.84
2022-08-11T04:45:09.910Z,16.80
2022-08-11T04:48:15.361Z,16.79
2022-08-11T04:51:19.013Z,16.78
2022-08-11T04:54:26.374Z,16.79
2022-08-11T04:57:28.265Z,16.80
2022-08-11T05:00:24.255Z,16.78
2022-08-11T05:03:13.800Z,16.79
2022-08-11T05:06:01.734Z,16.79
2022-08-11T05:08:47.259Z,16.81
2022-08-11T05:11:34.850Z,16.84
2022-08-11T05:14:46.242Z,16.85
2022-08-11T05:17:36.348Z,16.84
2022-08-11T05:20:21.437Z,16.82
2022-08-11T05:23:09.410Z,16.83
2022-08-11T05:26:43.267Z,16.80
2022-08-11T05:29:20.090Z,16.80
2022-08-11T05:32:15.594Z,16.82
2022-08-11T05:34:53.436Z,16.85
2022-08-11T05:37:34.431Z,16.88
2022-08-11T05:40:31.682Z,16.90
2022-08-11T05:43:30.536Z,16.92
2022-08-11T05:46:20.500Z,16.97
2022-08-11T05:49:07.266Z,17.02
2022-08-11T05:52:05.691Z,17.10
2022-08-11T05:55:00.129Z,17.20
2022-08-11T05:57:49.403Z,17.32
2022-08-11T06:00:19.225Z,17.44
2022-08-11T06:02:59.092Z,17.58
2022-08-11T06:05:38.299Z,17.69
2022-08-11T06:08:10.452Z,17.81
2022-08-11T06:10:40.638Z,17.94
2022-08-11T06:13:08.409Z,18.07
2022-08-11T06:15:46.141Z,18.21
2022-08-11T06:18:13.898Z,18.33
2022-08-11T06:20:48.728Z,18.46
2022-08-11T06:23:18.726Z,18.59
2022-08-11T06:25:46.310Z,18.72
2022-08-11T06:28:20.400Z,18.85
2022-08-11T06:30:48.936Z,18.98
2022-08-11T06:33:30.394Z,19.12
2022-08-11T06:36:13.545Z,19.25
2022-08-11T06:38:52.000Z,19.38
2022-08-11T06:41:30.328Z,19.50
2022-08-11T06:44:13.086Z,19.64
2022-08-11T06:46:40.903Z,19.73
2022-08-11T06:49:29.816Z,19.87
2022-08-11T06:52:04.410Z,19.98
2022-08-11T06:54:35.166Z,20.10
2022-08-11T06:57:30.856Z,20.22
2022-08-11T07:00:17.934Z,20.34
2022-08-11T07:02:54.681Z,20.50
2022-08-11T07:05:47.219Z,20.64
2022-08-11T07:08:44.698Z,20.79
2022-08-11T07:11:54.227Z,20.96
2022-08-11T07:14:43.543Z,21.11
2022-08-11T07:17:17.379Z,21.30
2022-08-11T07:20:11.913Z,21.46
2022-08-11T07:22:58.334Z,21.64
2022-08-11T07:25:44.909Z,21.82
2022-08-11T07:28:36.601Z,21.99
2022-08-11T07:31:09.539Z,22.14
2022-08-11T07:34:08.269Z,22.27
2022-08-11T07:36:31.885Z,22.42
2022-08-11T07:38:59.346Z,22.55
2022-08-11T07:41:28.621Z,22.66
2022-08-11T07:44:09.084Z,22.80
2022-08-11T07:46:59.713Z,22.94
2022-08-11T07:49:48.018Z,23.09
2022-08-11T07:52:26.935Z,23.23
2022-08-11T07:55:02.535Z,23.37
2022-08-11T07:58:15.050Z,23.52
2022-08-11T08:01:01.933Z,23.67
2022-08-11T08:03:54.263Z,23.85
2022-08-11T08:06:42.036Z,24.00
2022-08-11T08:09:28.767Z,24.09
2022-08-11T08:12:15.545Z,24.21
2022-08-11T08:15:01.143Z,24.30
2022-08-11T08:18:09.953Z,24.43
2022-08-11T08:20:37.866Z,24.54
2022-08-11T08:23:05.754Z,24.66
2022-08-11T08:25:35.156Z,24.80
2022-08-11T08:28:06.160Z,24.91
2022-08-11T08:30:47.823Z,24.96
2022-08-11T08:33:18.532Z,25.11
2022-08-11T08:35:54.580Z,25.19
2022-08-11T08:38:22.938Z,25.34
2022-08-11T08:40:56.003Z,25.46
2022-08-11T08:43:24.091Z,25.58
2022-08-11T08:45:55.950Z,25.70
2022-08-11T08:48:25.710Z,25.80
2022-08-11T08:51:21.784Z,25.97
2022-08-11T08:53:54.467Z,26.12
2022-08-11T08:56:28.303Z,26.26
2022-08-11T08:58:57.626Z,26.36
2022-08-11T09:01:25.691Z,26.46
2022-08-11T09:04:05.385Z,26.54
2022-08-11T09:06:40.107Z,26.67
2022-08-11T09:09:12.173Z,26.69
2022-08-11T09:11:55.056Z,26.79
2022-08-11T09:14:53.850Z,27.03
2022-08-11T09:17:21.545Z,27.23
2022-08-11T09:20:01.523Z,27.29
2022-08-11T09:23:10.530Z,27.40
2022-08-11T09:25:56.085Z,27.54
2022-08-11T09:28:23.815Z,27.71
2022-08-11T09:30:55.155Z,27.85
2022-08-11T09:33:24.052Z,27.85
2022-08-11T09:35:52.653Z,27.83
2022-08-11T09:38:43.216Z,27.95
2022-08-11T09:41:14.151Z,28.04
2022-08-11T09:44:04.524Z,28.16
2022-08-11T09:46:33.154Z,28.36
2022-08-11T09:49:01.166Z,28.53
2022-08-11T09:51:32.297Z,28.61
2022-08-11T09:54:07.556Z,28.81
2022-08-11T09:56:53.461Z,28.93
2022-08-11T09:59:22.072Z,29.02
2022-08-11T10:01:55.117Z,29.16
2022-08-11T10:04:34.748Z,29.16
2022-08-11T10:07:06.883Z,29.24
2022-08-11T10:09:43.833Z,29.42
2022-08-11T10:12:14.747Z,29.58
2022-08-11T10:15:03.953Z,29.70
2022-08-11T10:17:39.403Z,29.83
2022-08-11T10:20:08.864Z,29.95
2022-08-11T10:22:54.786Z,30.11
2022-08-11T10:25:40.566Z,30.28
2022-08-11T10:28:30.648Z,30.36
2022-08-11T10:31:15.354Z,30.58
2022-08-11T10:34:00.255Z,30.80
2022-08-11T10:36:48.488Z,30.98
2022-08-11T10:39:18.421Z,31.06
2022-08-11T10:42:09.550Z,31.12
2022-08-11T10:44:50.673Z,31.17
2022-08-11T10:47:35.918Z,31.26
2022-08-11T10:50:22.050Z,31.30
2022-08-11T10:53:08.824Z,31.33
2022-08-11T10:55:58.362Z,31.49
2022-08-11T10:58:44.398Z,31.46
2022-08-11T11:01:12.271Z,31.59
2022-08-11T11:03:39.533Z,31.62
2022-08-11T11:06:28.346Z,31.77
2022-08-11T11:09:05.362Z,31.97
2022-08-11T11:11:57.370Z,32.14
2022-08-11T11:14:50.782Z,32.36
2022-08-11T11:17:47.829Z,32.58
2022-08-11T11:20:36.976Z,32.62
2022-08-11T11:23:06.732Z,32.86
2022-08-11T11:26:12.495Z,33.09
2022-08-11T11:29:13.158Z,33.37
2022-08-11T11:32:17.834Z,33.53
2022-08-11T11:35:02.789Z,33.37
2022-08-11T11:37:40.616Z,33.23
2022-08-11T11:40:28.694Z,33.32
2022-08-11T11:42:59.915Z,33.51
2022-08-11T11:45:26.513Z,33.56
2022-08-11T11:47:55.478Z,33.72
2022-08-11T11:50:31.713Z,33.88
2022-08-11T11:53:01.574Z,33.93
2022-08-11T11:55:29.463Z,34.07
2022-08-11T11:58:18.631Z,34.02
2022-08-11T12:01:05.578Z,34.17
2022-08-11T12:03:34.025Z,34.32
2022-08-11T12:06:00.920Z,34.18
2022-08-11T12:08:28.331Z,34.17
2022-08-11T12:11:21.902Z,34.00
2022-08-11T12:13:53.931Z,33.78
2022-08-11T12:16:34.190Z,33.80
2022-08-11T12:19:23.592Z,34.01
2022-08-11T12:22:10.203Z,34.03
2022-08-11T12:24:56.317Z,34.40
2022-08-11T12:27:25.538Z,34.54
2022-08-11T12:30:05.865Z,34.89
2022-08-11T12:32:35.116Z,35.07
2022-08-11T12:35:02.217Z,35.13
2022-08-11T12:37:35.074Z,35.25
2022-08-11T12:40:42.132Z,35.10
2022-08-11T12:43:38.199Z,35.03
2022-08-11T12:46:19.898Z,35.41
2022-08-11T12:49:08.180Z,35.44
2022-08-11T12:52:11.727Z,35.22
2022-08-11T12:54:49.679Z,35.17
2022-08-11T12:57:41.242Z,35.07
2022-08-11T13:00:27.876Z,35.20
2022-08-11T13:03:14.498Z,35.02
2022-08-11T13:05:46.241Z,35.18
2022-08-11T13:08:15.298Z,35.12
2022-08-11T13:11:02.119Z,35.37
2022-08-11T13:13:54.300Z,35.69
2022-08-11T13:16:17.643Z,35.98
2022-08-11T13:18:45.038Z,36.30
2022-08-11T13:21:20.040Z,36.52
2022-08-11T13:24:01.354Z,36.44
2022-08-11T13:26:41.629Z,36.36
2022-08-11T13:29:23.885Z,36.37
2022-08-11T13:31:52.496Z,36.04
2022-08-11T13:34:20.468Z,35.95
2022-08-11T13:36:52.033Z,35.87
2022-08-11T13:39:20.560Z,35.97
2022-08-11T13:41:48.560Z,35.97
2022-08-11T13:44:23.212Z,36.24
2022-08-11T13:46:53.920Z,36.18
2022-08-11T13:49:21.782Z,36.29
2022-08-11T13:51:49.284Z,36.52
2022-08-11T13:54:25.318Z,36.54
2022-08-11T13:56:56.958Z,36.73
2022-08-11T13:59:31.205Z,36.63
2022-08-11T14:02:21.524Z,36.82
2022-08-11T14:05:07.211Z,36.95
2022-08-11T14:07:40.068Z,37.11
2022-08-11T14:10:08.976Z,37.23
2022-08-11T14:12:56.205Z,37.26
2022-08-11T14:15:34.074Z,37.46
2022-08-11T14:18:18.140Z,37.56
2022-08-11T14:21:10.498Z,37.59
2022-08-11T14:23:46.719Z,37.65
2022-08-11T14:26:29.045Z,37.27
2022-08-11T14:29:02.066Z,37.19
2022-08-11T14:31:33.776Z,36.95
2022-08-11T14:34:06.510Z,37.11
2022-08-11T14:36:39.149Z,37.19
2022-08-11T14:39:12.899Z,37.24
2022-08-11T14:42:10.483Z,37.33
2022-08-11T14:45:04.633Z,37.45
2022-08-11T14:47:34.731Z,37.49
2022-08-11T14:50:10.292Z,37.42
2022-08-11T14:52:49.008Z,37.28
2022-08-11T14:55:35.322Z,37.30
2022-08-11T14:58:02.645Z,37.42
2022-08-11T15:00:30.242Z,37.74
2022-08-11T15:03:11.841Z,38.22
2022-08-11T15:05:56.054Z,38.70
2022-08-11T15:08:47.142Z,39.05
2022-08-11T15:11:34.621Z,39.07
2022-08-11T15:14:03.379Z,39.02
2022-08-11T15:16:48.950Z,39.26
2022-08-11T15:19:19.604Z,39.70
2022-08-11T15:22:04.758Z,39.83
2022-08-11T15:24:33.533Z,39.91
2022-08-11T15:27:22.509Z,39.94
2022-08-11T15:30:10.040Z,40.06
2022-08-11T15:33:04.641Z,40.32
2022-08-11T15:35:53.461Z,40.54
2022-08-11T15:38:22.044Z,40.39
2022-08-11T15:41:07.836Z,40.04
2022-08-11T15:44:15.148Z,39.52
2022-08-11T15:46:45.735Z,39.38
2022-08-11T15:49:22.266Z,39.32
2022-08-11T15:52:10.642Z,39.34
2022-08-11T15:54:46.351Z,39.25
2022-08-11T15:57:39.955Z,39.02
2022-08-11T16:00:26.580Z,39.08
2022-08-11T16:02:56.886Z,39.06
2022-08-11T16:05:46.118Z,39.03
2022-08-11T16:08:15.362Z,39.17
2022-08-11T16:10:44.076Z,39.39
2022-08-11T16:13:13.223Z,39.76
2022-08-11T16:16:09.058Z,40.13
2022-08-11T16:18:47.081Z,40.43
2022-08-11T16:21:26.244Z,40.19
2022-08-11T16:24:06.123Z,39.64
2022-08-11T16:27:11.200Z,39.30
2022-08-11T16:29:25.033Z,39.15
2022-08-11T16:32:11.592Z,38.99
2022-08-11T16:34:58.605Z,38.76
2022-08-11T16:37:45.642Z,38.61
2022-08-11T16:40:13.149Z,38.54
2022-08-11T16:43:09.965Z,38.52
2022-08-11T16:45:58.524Z,38.40
2022-08-11T16:48:37.278Z,37.90
2022-08-11T16:51:10.467Z,37.39
2022-08-11T16:53:46.108Z,36.90
2022-08-11T16:56:35.042Z,36.44
2022-08-11T16:59:16.535Z,36.11
2022-08-11T17:01:53.987Z,35.90
2022-08-11T17:05:04.300Z,35.57
2022-08-11T17:07:49.641Z,35.38
2022-08-11T17:10:52.732Z,35.22
2022-08-11T17:13:31.805Z,35.03
2022-08-11T17:16:10.875Z,34.94
2022-08-11T17:18:55.679Z,34.87
2022-08-11T17:21:26.645Z,34.85
2022-08-11T17:24:05.064Z,34.84
2022-08-11T17:26:58.604Z,34.62
2022-08-11T17:29:54.536Z,34.46
2022-08-11T17:32:56.730Z,34.42
2022-08-11T17:35:33.398Z,34.35
2022-08-11T17:38:17.901Z,34.33
2022-08-11T17:41:10.730Z,34.34
2022-08-11T17:44:09.257Z,34.34
2022-08-11T17:46:55.598Z,34.37
2022-08-11T17:49:23.594Z,34.30
2022-08-11T17:52:10.635Z,34.15
2022-08-11T17:54:58.184Z,34.01
2022-08-11T17:57:47.775Z,33.86
2022-08-11T18:00:15.574Z,33.69
2022-08-11T18:03:06.246Z,33.60
2022-08-11T18:05:37.084Z,33.46
2022-08-11T18:08:26.441Z,33.36
2022-08-11T18:11:17.456Z,33.24
2022-08-11T18:14:22.928Z,33.06
2022-08-11T18:17:07.699Z,32.91
2022-08-11T18:19:53.114Z,32.81
2022-08-11T18:22:48.576Z,32.67
2022-08-11T18:25:45.505Z,32.50
2022-08-11T18:28:33.516Z,32.29
2022-08-11T18:31:21.425Z,32.07
2022-08-11T18:34:14.752Z,31.82
2022-08-11T18:37:20.611Z,31.56
2022-08-11T18:40:15.226Z,31.27
2022-08-11T18:43:03.081Z,31.02
2022-08-11T18:45:52.760Z,30.72
2022-08-11T18:48:55.307Z,30.43
2022-08-11T18:51:42.735Z,30.16
2022-08-11T18:54:30.827Z,29.91
2022-08-11T18:57:20.749Z,29.68
2022-08-11T19:00:07.094Z,29.41
2022-08-11T19:02:55.691Z,29.21
2022-08-11T19:06:35.868Z,29.01
2022-08-11T19:08:53.515Z,28.81
2022-08-11T19:11:42.418Z,28.62
2022-08-11T19:14:30.576Z,28.41
2022-08-11T19:17:44.618Z,28.24
2022-08-11T19:20:30.116Z,28.07
2022-08-11T19:23:15.962Z,27.91
2022-08-11T19:26:02.708Z,27.74
2022-08-11T19:28:48.607Z,27.58
2022-08-11T19:31:34.157Z,27.42
2022-08-11T19:34:20.250Z,27.30
2022-08-11T19:37:06.615Z,27.19
2022-08-11T19:39:53.810Z,27.04
2022-08-11T19:42:40.286Z,26.93
2022-08-11T19:45:26.358Z,26.82
2022-08-11T19:48:31.138Z,26.70
2022-08-11T19:51:18.691Z,26.59
2022-08-11T19:54:06.469Z,26.50
2022-08-11T19:56:53.457Z,26.45
2022-08-11T19:59:41.796Z,26.38
2022-08-11T20:02:28.769Z,26.33
2022-08-11T20:05:13.753Z,26.29
2022-08-11T20:07:59.681Z,26.27
2022-08-11T20:10:47.152Z,26.22
2022-08-11T20:13:33.782Z,26.16
2022-08-11T20:16:21.261Z,26.14
2022-08-11T20:19:09.081Z,26.08
2022-08-11T20:21:56.389Z,26.05
2022-08-11T20:24:42.362Z,25.99
2022-08-11T20:27:29.348Z,25.94
2022-08-11T20:30:17.255Z,25.89
2022-08-11T20:33:03.325Z,25.85
2022-08-11T20:35:50.180Z,25.81
2022-08-11T20:38:37.004Z,25.77
2022-08-11T20:41:23.047Z,25.66
2022-08-11T20:44:10.322Z,25.53
2022-08-11T20:46:57.845Z,25.45
2022-08-11T20:49:53.606Z,25.37
2022-08-11T20:52:47.151Z,25.30
2022-08-11T20:55:46.346Z,25.26
2022-08-11T21:01:45.440Z,25.14
2022-08-11T21:04:31.258Z,25.06
2022-08-11T21:07:28.035Z,24.95
2022-08-11T21:10:23.307Z,24.81
2022-08-11T21:13:18.007Z,24.66
2022-08-11T21:16:16.350Z,24.54
2022-08-11T21:19:15.661Z,24.40
2022-08-11T21:22:03.746Z,24.28
2022-08-11T21:24:50.823Z,24.15
2022-08-11T21:27:38.908Z,24.02
2022-08-11T21:30:24.715Z,23.88
2022-08-11T21:33:11.349Z,23.79
2022-08-11T21:35:56.859Z,23.69
2022-08-11T21:38:42.625Z,23.57
2022-08-11T21:41:29.445Z,23.45
2022-08-11T21:44:16.252Z,23.40
2022-08-11T21:47:02.453Z,23.30
2022-08-11T21:49:49.790Z,23.26
2022-08-11T21:52:35.157Z,23.21
2022-08-11T21:55:21.195Z,23.17
2022-08-11T21:58:07.235Z,23.11
2022-08-11T22:00:52.545Z,23.06
2022-08-11T22:03:49.797Z,22.98
2022-08-11T22:06:36.808Z,22.90
2022-08-11T22:09:22.119Z,22.83
2022-08-11T22:12:34.301Z,22.74
2022-08-11T22:15:13.010Z,22.61
2022-08-11T22:17:58.428Z,22.53
2022-08-11T22:20:45.775Z,22.42
2022-08-11T22:23:36.348Z,22.33
2022-08-11T22:26:22.779Z,22.23
2022-08-11T22:29:08.239Z,22.13
2022-08-11T22:31:55.319Z,22.06
2022-08-11T22:34:52.790Z,21.99
2022-08-11T22:37:39.491Z,21.90
2022-08-11T22:40:26.028Z,21.80
2022-08-11T22:43:10.950Z,21.75
2022-08-11T22:45:56.361Z,21.71
2022-08-11T22:48:44.587Z,21.64
2022-08-11T22:51:31.402Z,21.56
2022-08-11T22:54:18.369Z,21.47
2022-08-11T22:57:03.468Z,21.40
2022-08-11T22:59:49.362Z,21.33
2022-08-11T23:02:34.916Z,21.28
2022-08-11T23:05:21.454Z,21.22
2022-08-11T23:08:07.041Z,21.18
2022-08-11T23:10:52.660Z,21.10
2022-08-11T23:13:40.209Z,21.05
2022-08-11T23:16:26.093Z,20.99
2022-08-11T23:19:13.258Z,20.95
2022-08-11T23:21:59.238Z,20.87
2022-08-11T23:24:44.953Z,20.81
2022-08-11T23:27:32.320Z,20.75
2022-08-11T23:30:19.678Z,20.70
2022-08-11T23:33:09.876Z,20.66
2022-08-11T23:36:02.294Z,20.59
2022-08-11T23:38:51.306Z,20.52
2022-08-11T23:41:36.833Z,20.48
2022-08-11T23:44:24.327Z,20.43
2022-08-11T23:47:13.872Z,20.38
2022-08-11T23:50:00.782Z,20.33
2022-08-11T23:52:47.761Z,20.28
2022-08-11T23:55:33.280Z,20.22
2022-08-11T23:58:18.729Z,20.17
